Time;durP1;ratioP1;P1;durP2;ratioP2;P2;SDS_P1;SDS_P2;PMS_P1;PMS_P2;Temp;Humidity;BMP_temperature;BMP_pressure;BME280_temperature;BME280_humidity;BME280_pressure;Samples;Min_cycle;Max_cycle;Signal;HPM_P1;HPM_P2
2021/10/19 00:00:15;;;;;;;199.23;183.77;;;11.60;99.90;;;;;;5016892;28;20180;-81
2021/10/19 00:02:42;;;;;;;197.75;182.57;;;11.50;99.90;;;;;;5017434;28;20162;-81
2021/10/19 00:05:09;;;;;;;234.90;218.32;;;11.60;99.90;;;;;;5016344;28;20672;-81
2021/10/19 00:07:35;;;;;;;214.00;197.98;;;11.50;99.90;;;;;;5016131;28;20182;-81
2021/10/19 00:10:01;;;;;;;200.70;184.82;;;11.60;99.90;;;;;;5017038;28;20686;-81
2021/10/19 00:12:27;;;;;;;202.23;185.93;;;11.50;99.90;;;;;;5016052;28;20165;-80
2021/10/19 00:14:53;;;;;;;230.57;213.77;;;11.60;99.90;;;;;;5016524;28;20400;-81
2021/10/19 00:17:19;;;;;;;208.73;192.47;;;11.60;99.90;;;;;;5016265;28;20571;-80
2021/10/19 00:19:44;;;;;;;226.43;209.48;;;11.60;99.90;;;;;;4998618;28;20637;-81
2021/10/19 00:22:10;;;;;;;220.77;204.13;;;11.50;99.90;;;;;;5016362;28;20173;-81
2021/10/19 00:27:07;;;;;;;266.77;248.45;;;11.60;99.90;;;;;;5016286;28;20468;-80
2021/10/19 00:29:33;;;;;;;246.50;228.87;;;11.60;99.90;;;;;;5017295;28;20173;-80
2021/10/19 00:31:58;;;;;;;204.40;188.47;;;11.60;99.90;;;;;;5017386;28;20173;-81
2021/10/19 00:34:24;;;;;;;209.70;193.63;;;11.60;99.90;;;;;;5017755;28;20162;-81
2021/10/19 00:36:50;;;;;;;202.23;186.67;;;11.60;99.90;;;;;;5015640;28;20304;-79
2021/10/19 00:39:19;;;;;;;204.47;188.90;;;11.70;99.90;;;;;;5015883;28;20277;-81
2021/10/19 00:41:45;;;;;;;245.18;228.10;;;11.60;99.90;;;;;;5017486;28;20481;-81
2021/10/19 00:44:10;;;;;;;232.30;215.60;;;11.60;99.90;;;;;;5016105;28;20208;-81
2021/10/19 00:46:41;;;;;;;207.03;191.20;;;11.70;99.90;;;;;;5016445;28;20170;-81
2021/10/19 00:49:07;;;;;;;193.10;177.82;;;11.70;99.90;;;;;;5017212;28;20538;-81
2021/10/19 00:51:34;;;;;;;318.20;297.55;;;11.80;99.90;;;;;;5017238;28;20529;-81
2021/10/19 00:54:02;;;;;;;272.10;253.50;;;11.70;99.90;;;;;;5017123;28;20231;-81
2021/10/19 00:56:29;;;;;;;247.02;229.75;;;11.70;99.90;;;;;;5016501;28;20172;-81
2021/10/19 00:58:55;;;;;;;282.05;263.48;;;11.70;99.90;;;;;;5017641;28;20190;-81
2021/10/19 01:01:20;;;;;;;388.10;365.20;;;11.70;99.90;;;;;;5017252;28;20166;-81
2021/10/19 01:03:46;;;;;;;291.43;272.97;;;11.70;99.90;;;;;;5016888;28;20581;-81
2021/10/19 01:06:13;;;;;;;316.33;296.43;;;11.70;99.90;;;;;;5016564;28;20507;-81
2021/10/19 01:08:40;;;;;;;268.48;250.93;;;11.70;99.90;;;;;;5015303;28;20189;-81
2021/10/19 01:11:07;;;;;;;313.92;294.00;;;11.70;99.90;;;;;;5017242;28;20174;-81
2021/10/19 01:13:33;;;;;;;282.98;264.52;;;11.70;99.90;;;;;;5016366;28;20170;-80
2021/10/19 01:16:10;;;;;;;297.92;278.48;;;11.80;99.90;;;;;;5016647;28;20166;-81
2021/10/19 01:18:37;;;;;;;278.98;260.95;;;11.80;99.90;;;;;;5016239;28;20274;-81
2021/10/19 01:21:04;;;;;;;316.75;296.55;;;11.70;99.90;;;;;;5016757;28;20162;-81
2021/10/19 01:23:30;;;;;;;294.13;275.42;;;11.70;99.90;;;;;;5016226;28;20173;-81
2021/10/19 01:25:57;;;;;;;307.00;287.47;;;11.70;99.90;;;;;;5016519;28;20201;-81
2021/10/19 01:31:11;;;;;;;287.60;269.17;;;11.80;99.90;;;;;;5015344;28;20685;-81
2021/10/19 01:34:21;;;;;;;303.73;284.58;;;11.80;99.90;;;;;;5016632;28;20138;-81
2021/10/19 01:36:52;;;;;;;294.80;275.77;;;11.80;99.90;;;;;;4998605;28;20773;-80
2021/10/19 01:39:18;;;;;;;334.77;314.08;;;11.80;99.90;;;;;;5020290;28;20562;-81
2021/10/19 01:42:02;;;;;;;367.13;345.37;;;11.80;99.90;;;;;;5019465;28;20162;-81
2021/10/19 01:44:52;;;;;;;353.45;331.85;;;11.80;99.90;;;;;;5020151;28;20257;-81
2021/10/19 01:47:21;;;;;;;371.73;349.65;;;11.70;99.90;;;;;;5019595;28;20159;-81
2021/10/19 01:49:47;;;;;;;372.73;351.02;;;11.70;99.90;;;;;;5019822;28;20174;-81
2021/10/19 01:52:48;;;;;;;378.13;356.07;;;11.70;99.90;;;;;;5019724;28;20693;-80
2021/10/19 01:55:23;;;;;;;380.75;358.65;;;11.70;99.90;;;;;;5019533;28;20156;-80
2021/10/19 01:57:51;;;;;;;372.58;351.27;;;11.70;99.90;;;;;;5018262;28;20205;-81
2021/10/19 02:00:19;;;;;;;386.42;364.55;;;11.70;99.90;;;;;;5019534;28;20577;-80
2021/10/19 02:02:45;;;;;;;377.48;356.52;;;11.60;99.90;;;;;;5018040;28;20166;-81
2021/10/19 02:05:16;;;;;;;400.40;378.03;;;11.60;99.90;;;;;;5020088;28;20208;-81
2021/10/19 02:07:44;;;;;;;393.42;371.02;;;11.60;99.90;;;;;;5020072;28;20699;-81
2021/10/19 02:10:12;;;;;;;408.92;386.45;;;11.60;99.90;;;;;;5020139;28;20205;-81
2021/10/19 02:12:38;;;;;;;351.38;330.58;;;11.60;99.90;;;;;;5018208;28;20545;-81
2021/10/19 02:15:06;;;;;;;372.73;350.90;;;11.60;99.90;;;;;;5019522;28;20677;-81
2021/10/19 02:17:32;;;;;;;353.85;333.15;;;11.50;99.90;;;;;;5019695;28;20204;-81
2021/10/19 02:20:00;;;;;;;364.87;344.07;;;11.50;99.90;;;;;;5018710;28;20166;-81
2021/10/19 02:22:30;;;;;;;346.33;325.92;;;11.40;99.90;;;;;;5018186;28;20432;-81
2021/10/19 02:24:57;;;;;;;358.27;337.60;;;11.50;99.90;;;;;;5019833;28;20622;-81
2021/10/19 02:27:23;;;;;;;335.08;315.20;;;11.40;99.90;;;;;;5020811;28;20576;-81
2021/10/19 02:29:48;;;;;;;339.93;319.70;;;11.40;99.90;;;;;;5020208;28;20192;-81
2021/10/19 02:32:14;;;;;;;342.97;322.80;;;11.40;99.90;;;;;;5019923;28;20249;-81
2021/10/19 02:34:40;;;;;;;313.80;294.23;;;11.40;99.90;;;;;;5019575;28;20200;-81
2021/10/19 02:37:05;;;;;;;348.33;327.37;;;11.40;99.90;;;;;;5019663;28;20196;-81
2021/10/19 02:39:31;;;;;;;312.53;293.17;;;11.40;99.90;;;;;;5019594;28;20526;-81
2021/10/19 02:41:56;;;;;;;285.63;267.47;;;11.40;99.90;;;;;;5020200;28;20165;-81
2021/10/19 02:44:22;;;;;;;335.60;315.87;;;11.30;99.90;;;;;;5019921;28;20158;-81
2021/10/19 02:46:48;;;;;;;330.50;310.37;;;11.20;99.90;;;;;;5019781;28;20176;-81
2021/10/19 02:49:14;;;;;;;320.53;300.90;;;11.20;99.90;;;;;;5019278;28;20186;-81
2021/10/19 02:51:39;;;;;;;330.87;311.40;;;11.20;99.90;;;;;;5019631;28;20215;-81
2021/10/19 02:54:05;;;;;;;326.40;306.67;;;11.30;99.90;;;;;;5019576;28;20224;-81
2021/10/19 02:56:31;;;;;;;339.27;318.93;;;11.30;99.90;;;;;;5020233;28;20173;-81
2021/10/19 02:58:56;;;;;;;394.93;372.53;;;11.30;99.90;;;;;;5020144;28;20218;-81
2021/10/19 03:01:22;;;;;;;325.20;305.43;;;11.30;99.90;;;;;;5019970;28;20169;-81
2021/10/19 03:03:47;;;;;;;320.63;301.30;;;11.30;99.90;;;;;;5020151;28;20169;-81
2021/10/19 03:06:13;;;;;;;344.20;323.87;;;11.40;99.90;;;;;;5020846;28;20166;-81
2021/10/19 03:08:39;;;;;;;358.13;336.70;;;11.40;99.90;;;;;;5018624;28;20193;-81
2021/10/19 03:11:04;;;;;;;352.77;332.27;;;11.40;99.90;;;;;;5020360;28;20250;-81
2021/10/19 03:13:30;;;;;;;346.40;326.10;;;11.40;99.90;;;;;;5019254;28;20257;-81
2021/10/19 03:15:56;;;;;;;359.60;338.53;;;11.40;99.90;;;;;;5020788;28;20165;-81
2021/10/19 03:18:22;;;;;;;378.40;356.45;;;11.40;99.90;;;;;;5020471;28;20271;-81
2021/10/19 03:20:48;;;;;;;377.13;354.77;;;11.50;99.90;;;;;;5021141;28;20158;-81
2021/10/19 03:23:14;;;;;;;389.20;366.93;;;11.60;99.90;;;;;;5020384;28;20197;-81
2021/10/19 03:25:40;;;;;;;369.50;347.70;;;11.60;99.90;;;;;;5020040;28;20397;-81
2021/10/19 03:28:06;;;;;;;405.30;382.15;;;11.60;99.90;;;;;;5019892;28;20193;-81
2021/10/19 03:30:32;;;;;;;374.40;352.80;;;11.60;99.90;;;;;;5019696;28;20185;-81
2021/10/19 03:32:58;;;;;;;355.63;334.53;;;11.60;99.90;;;;;;5020409;28;20522;-81
2021/10/19 03:35:23;;;;;;;353.35;332.15;;;11.60;99.90;;;;;;5019555;28;20172;-81
2021/10/19 03:37:49;;;;;;;406.63;382.97;;;11.60;99.90;;;;;;5019742;28;20202;-81
2021/10/19 03:40:15;;;;;;;392.40;370.13;;;11.70;99.90;;;;;;5018341;28;20192;-81
2021/10/19 03:42:41;;;;;;;393.07;370.60;;;11.70;99.90;;;;;;5019369;28;20170;-81
2021/10/19 03:45:11;;;;;;;383.67;360.80;;;11.70;99.90;;;;;;5021890;28;20158;-82
2021/10/19 03:47:36;;;;;;;403.92;381.38;;;11.70;99.90;;;;;;5021895;28;20189;-81
2021/10/19 03:50:03;;;;;;;398.77;376.17;;;11.70;99.90;;;;;;5022182;28;20188;-81
2021/10/19 03:52:29;;;;;;;353.48;332.50;;;11.70;99.90;;;;;;5021582;28;20536;-81
2021/10/19 03:54:55;;;;;;;377.53;356.03;;;11.60;99.90;;;;;;5020782;28;20193;-81
2021/10/19 03:57:21;;;;;;;357.40;335.97;;;11.60;99.90;;;;;;5019061;28;20460;-81
2021/10/19 03:59:47;;;;;;;347.88;326.58;;;11.60;99.90;;;;;;5020409;28;20165;-81
2021/10/19 04:02:12;;;;;;;381.73;359.40;;;11.60;99.90;;;;;;5020045;28;20245;-81
2021/10/19 04:04:41;;;;;;;343.43;322.00;;;11.60;99.90;;;;;;5020994;28;20534;-81
2021/10/19 04:07:06;;;;;;;354.23;333.08;;;11.60;99.90;;;;;;5021582;28;20189;-81
2021/10/19 04:09:32;;;;;;;349.97;328.77;;;11.60;99.90;;;;;;5019067;28;20173;-80
2021/10/19 04:11:58;;;;;;;348.70;327.60;;;11.60;99.90;;;;;;5020765;28;20245;-81
2021/10/19 04:14:23;;;;;;;336.60;316.07;;;11.60;99.90;;;;;;5021196;28;20177;-81
2021/10/19 04:16:49;;;;;;;351.13;329.67;;;11.60;99.90;;;;;;5018544;28;20240;-81
2021/10/19 04:19:15;;;;;;;375.37;353.03;;;11.60;99.90;;;;;;5017957;28;20196;-81
2021/10/19 04:21:45;;;;;;;352.02;330.75;;;11.60;99.90;;;;;;5019229;28;20243;-81
2021/10/19 04:24:12;;;;;;;350.83;329.50;;;11.60;99.90;;;;;;5021255;28;20142;-81
2021/10/19 04:26:37;;;;;;;323.25;302.17;;;11.60;99.90;;;;;;5020495;28;20185;-81
2021/10/19 04:29:04;;;;;;;321.37;301.23;;;11.60;99.90;;;;;;5020073;28;20202;-80
2021/10/19 04:31:31;;;;;;;327.08;306.55;;;11.60;99.90;;;;;;5020313;28;20514;-81
2021/10/19 04:33:59;;;;;;;304.90;285.33;;;11.60;99.90;;;;;;5021083;28;20169;-81
2021/10/19 04:36:25;;;;;;;356.05;334.60;;;11.60;99.90;;;;;;5020415;28;20170;-80
2021/10/19 04:38:51;;;;;;;324.05;303.48;;;11.60;99.90;;;;;;5019169;28;20665;-81
2021/10/19 04:41:17;;;;;;;342.07;321.60;;;11.60;99.90;;;;;;5021273;28;20185;-81
2021/10/19 04:43:43;;;;;;;330.70;309.77;;;11.60;99.90;;;;;;5020273;28;20776;-81
2021/10/19 04:46:08;;;;;;;319.93;299.77;;;11.60;99.90;;;;;;5021001;28;20260;-81
2021/10/19 04:48:34;;;;;;;324.70;304.30;;;11.60;99.90;;;;;;5021263;28;20185;-81
2021/10/19 04:51:00;;;;;;;298.60;279.23;;;11.60;99.90;;;;;;5019690;28;20537;-81
2021/10/19 04:53:25;;;;;;;287.30;268.10;;;11.60;99.90;;;;;;5020082;28;20209;-81
2021/10/19 04:55:51;;;;;;;327.97;307.67;;;11.60;99.90;;;;;;5021239;28;20174;-81
2021/10/19 04:58:17;;;;;;;294.83;274.23;;;11.60;99.90;;;;;;5020446;28;20201;-81
2021/10/19 05:00:46;;;;;;;289.73;270.80;;;11.60;99.90;;;;;;5021056;28;20166;-81
2021/10/19 05:03:12;;;;;;;303.40;284.33;;;11.60;99.90;;;;;;5020677;28;20689;-81
2021/10/19 05:05:38;;;;;;;322.73;302.63;;;11.60;99.90;;;;;;5021789;28;20224;-81
2021/10/19 05:08:04;;;;;;;314.97;294.23;;;11.70;99.90;;;;;;5021496;28;20432;-81
2021/10/19 05:10:30;;;;;;;313.15;292.50;;;11.70;99.90;;;;;;5020099;28;20261;-81
2021/10/19 05:12:55;;;;;;;326.03;305.93;;;11.70;99.90;;;;;;5021983;28;20197;-81
2021/10/19 05:15:21;;;;;;;283.97;264.80;;;11.60;99.90;;;;;;5021660;28;20189;-81
2021/10/19 05:17:47;;;;;;;310.63;290.63;;;11.60;99.90;;;;;;5021749;28;20205;-81
2021/10/19 05:20:12;;;;;;;296.83;276.73;;;11.70;99.90;;;;;;5022833;28;20233;-81
2021/10/19 05:22:38;;;;;;;262.33;244.40;;;11.70;99.90;;;;;;5023431;28;20244;-81
2021/10/19 05:25:05;;;;;;;285.97;267.53;;;11.70;99.90;;;;;;5023309;28;20170;-81
2021/10/19 05:27:30;;;;;;;247.35;228.57;;;11.70;99.90;;;;;;5022530;28;20429;-81
2021/10/19 05:29:56;;;;;;;240.33;222.20;;;11.70;99.90;;;;;;5024433;28;20192;-81
2021/10/19 05:32:22;;;;;;;253.20;235.33;;;11.70;99.90;;;;;;5025203;28;20205;-81
2021/10/19 05:34:47;;;;;;;253.10;235.67;;;11.70;99.90;;;;;;5025172;28;20189;-81
2021/10/19 05:37:13;;;;;;;252.73;235.20;;;11.70;99.90;;;;;;5025108;28;20216;-81
2021/10/19 05:39:41;;;;;;;258.33;240.17;;;11.70;99.90;;;;;;5024179;28;20170;-82
2021/10/19 05:42:07;;;;;;;253.48;236.00;;;11.70;99.90;;;;;;5023739;28;20188;-81
2021/10/19 05:44:32;;;;;;;205.93;189.68;;;11.80;99.90;;;;;;5024694;28;20166;-81
2021/10/19 05:46:58;;;;;;;218.10;201.07;;;11.80;99.90;;;;;;5023909;28;20197;-81
2021/10/19 05:49:24;;;;;;;207.73;191.20;;;11.80;99.90;;;;;;5024574;28;20214;-82
2021/10/19 05:51:52;;;;;;;220.10;203.63;;;11.80;99.90;;;;;;5023970;28;20197;-82
2021/10/19 05:54:17;;;;;;;198.40;182.32;;;11.80;99.90;;;;;;5023820;28;20412;-82
2021/10/19 05:56:44;;;;;;;179.83;164.77;;;11.80;99.90;;;;;;5024241;28;20176;-81
2021/10/19 05:59:09;;;;;;;195.27;179.75;;;11.80;99.90;;;;;;5023242;28;20221;-82
2021/10/19 06:01:35;;;;;;;186.10;170.83;;;11.80;99.90;;;;;;5025286;28;20164;-81
2021/10/19 06:04:00;;;;;;;197.63;181.50;;;11.90;99.90;;;;;;5024558;28;20196;-81
2021/10/19 06:06:26;;;;;;;191.60;175.90;;;11.90;99.90;;;;;;5025641;28;20170;-82
2021/10/19 06:08:52;;;;;;;201.00;185.10;;;11.90;99.90;;;;;;5024982;28;20174;-82
2021/10/19 06:11:19;;;;;;;191.83;176.13;;;11.90;99.90;;;;;;5025153;28;20189;-82
2021/10/19 06:13:44;;;;;;;189.57;173.90;;;11.90;99.90;;;;;;5024101;28;20170;-82
2021/10/19 06:16:10;;;;;;;174.13;158.73;;;11.90;99.90;;;;;;5025774;28;20185;-82
2021/10/19 06:18:36;;;;;;;189.57;173.80;;;11.90;99.90;;;;;;5024890;28;20205;-82
2021/10/19 06:21:02;;;;;;;204.93;188.63;;;11.90;99.90;;;;;;5024933;28;20409;-81
2021/10/19 06:23:28;;;;;;;178.65;163.25;;;11.90;99.90;;;;;;5025488;28;20174;-82
2021/10/19 06:25:54;;;;;;;168.43;153.43;;;11.90;99.90;;;;;;5069982;22;20274;-78
2021/10/19 06:28:20;;;;;;;150.87;136.50;;;11.90;99.90;;;;;;5038476;28;20217;-78
2021/10/19 06:30:46;;;;;;;164.75;150.13;;;12.00;99.90;;;;;;5038726;28;20193;-79
2021/10/19 06:33:12;;;;;;;168.83;154.27;;;12.00;99.90;;;;;;5038842;28;20168;-79
2021/10/19 06:35:40;;;;;;;184.80;169.90;;;12.00;99.90;;;;;;5020810;28;20664;-78
2021/10/19 06:38:06;;;;;;;171.43;156.85;;;12.00;99.90;;;;;;5021140;28;20459;-78
2021/10/19 06:40:31;;;;;;;170.67;156.13;;;12.00;99.90;;;;;;5038757;28;20165;-79
2021/10/19 06:42:57;;;;;;;173.43;158.93;;;12.00;99.90;;;;;;5038129;28;20396;-79
2021/10/19 06:45:23;;;;;;;173.47;158.97;;;12.00;99.90;;;;;;5038065;28;20958;-79
2021/10/19 06:47:49;;;;;;;178.65;163.48;;;12.00;99.90;;;;;;5038478;28;20189;-78
2021/10/19 06:50:14;;;;;;;142.40;128.97;;;12.10;99.90;;;;;;5038274;28;20180;-79
2021/10/19 06:52:40;;;;;;;160.73;146.53;;;12.10;99.90;;;;;;5037773;28;20172;-78
2021/10/19 06:55:08;;;;;;;146.13;132.33;;;12.10;99.90;;;;;;5037884;28;20164;-77
2021/10/19 06:57:44;;;;;;;140.03;126.63;;;12.10;99.90;;;;;;5037754;28;20451;-78
2021/10/19 07:00:15;;;;;;;135.93;122.50;;;12.10;99.90;;;;;;5037695;28;20395;-78
2021/10/19 07:02:41;;;;;;;154.90;140.02;;;12.10;99.90;;;;;;5037376;28;20525;-78
2021/10/19 07:05:07;;;;;;;153.63;139.63;;;12.10;99.90;;;;;;5037984;28;20161;-78
2021/10/19 07:07:34;;;;;;;155.70;141.20;;;12.10;99.90;;;;;;5037488;28;20436;-78
2021/10/19 07:10:00;;;;;;;144.05;130.20;;;12.20;99.90;;;;;;5037666;28;20195;-78
2021/10/19 07:12:27;;;;;;;132.07;118.80;;;12.20;99.90;;;;;;5037865;28;20208;-78
2021/10/19 07:14:53;;;;;;;160.23;145.88;;;12.20;99.90;;;;;;5019935;28;20404;-78
2021/10/19 07:17:18;;;;;;;134.77;121.30;;;12.30;99.90;;;;;;5037933;28;20188;-78
2021/10/19 07:19:47;;;;;;;131.03;118.17;;;12.30;99.90;;;;;;5037704;28;20504;-78
2021/10/19 07:22:17;;;;;;;155.38;141.52;;;12.30;99.90;;;;;;5037235;28;20169;-78
2021/10/19 07:24:42;;;;;;;152.00;138.18;;;12.30;99.90;;;;;;5037512;28;20244;-78
2021/10/19 07:27:08;;;;;;;148.90;135.43;;;12.30;99.90;;;;;;5019701;28;20209;-78
2021/10/19 07:29:34;;;;;;;143.45;130.20;;;12.40;99.90;;;;;;5036929;28;20219;-78
2021/10/19 07:32:00;;;;;;;140.60;127.00;;;12.40;99.90;;;;;;5020401;28;20625;-78
2021/10/19 07:34:25;;;;;;;121.13;108.43;;;12.40;99.90;;;;;;5037012;28;20177;-78
2021/10/19 07:36:53;;;;;;;123.47;111.10;;;12.50;99.90;;;;;;5037371;28;20288;-78
2021/10/19 07:39:19;;;;;;;121.55;109.15;;;12.50;99.90;;;;;;5019287;28;20185;-78
2021/10/19 07:41:44;;;;;;;124.53;111.80;;;12.50;99.90;;;;;;5037183;28;20736;-78
2021/10/19 07:44:10;;;;;;;134.53;121.07;;;12.50;99.90;;;;;;5036662;28;20637;-77
2021/10/19 07:46:36;;;;;;;135.23;122.57;;;12.60;99.90;;;;;;5018963;28;20415;-77
2021/10/19 07:49:02;;;;;;;131.13;118.37;;;12.60;99.90;;;;;;5037189;28;20644;-77
2021/10/19 07:51:28;;;;;;;129.80;117.40;;;12.60;99.90;;;;;;5036416;28;20636;-78
2021/10/19 07:53:53;;;;;;;116.77;104.97;;;12.60;99.90;;;;;;5036608;28;20407;-77
2021/10/19 07:56:22;;;;;;;130.43;117.77;;;12.60;99.90;;;;;;5037262;28;20553;-78
2021/10/19 07:58:48;;;;;;;129.40;116.57;;;12.70;99.90;;;;;;5036520;28;20260;-78
2021/10/19 08:01:14;;;;;;;121.90;109.60;;;12.70;99.90;;;;;;5037023;28;20431;-79
2021/10/19 08:03:40;;;;;;;133.95;121.22;;;12.70;99.90;;;;;;5037234;28;20404;-78
2021/10/19 08:06:05;;;;;;;122.90;110.70;;;12.70;99.90;;;;;;5037422;28;20211;-79
2021/10/19 08:08:31;;;;;;;132.97;120.40;;;12.70;99.90;;;;;;5037372;28;20653;-79
2021/10/19 08:10:57;;;;;;;115.03;103.03;;;12.70;99.90;;;;;;5019220;28;20166;-79
2021/10/19 08:13:22;;;;;;;117.33;105.57;;;12.70;99.90;;;;;;5037127;28;20449;-79
2021/10/19 08:15:48;;;;;;;121.33;109.27;;;12.70;99.90;;;;;;5036295;28;20176;-77
2021/10/19 08:18:14;;;;;;;121.35;109.43;;;12.80;99.90;;;;;;5036858;28;20569;-79
2021/10/19 08:20:41;;;;;;;124.17;112.13;;;12.80;99.90;;;;;;5020787;28;20172;-79
2021/10/19 08:23:08;;;;;;;110.23;98.67;;;12.80;99.90;;;;;;5019298;28;20212;-79
2021/10/19 08:25:34;;;;;;;118.47;106.68;;;12.80;99.90;;;;;;5019658;28;20859;-79
2021/10/19 08:28:00;;;;;;;108.57;96.97;;;12.90;99.90;;;;;;5019890;28;20208;-79
2021/10/19 08:30:26;;;;;;;102.75;91.38;;;12.90;99.90;;;;;;5038599;28;20518;-79
2021/10/19 08:32:52;;;;;;;107.30;95.67;;;13.00;99.90;;;;;;5038442;28;20637;-79
2021/10/19 08:35:20;;;;;;;115.40;103.60;;;13.00;99.90;;;;;;5037696;28;20406;-79
2021/10/19 08:37:46;;;;;;;114.37;102.67;;;13.00;99.90;;;;;;5019668;28;20482;-79
2021/10/19 08:40:12;;;;;;;118.37;106.43;;;13.10;99.90;;;;;;5037596;28;20811;-79
2021/10/19 08:42:44;;;;;;;104.80;93.40;;;13.10;99.90;;;;;;5038268;28;20426;-79
2021/10/19 08:45:12;;;;;;;108.23;96.67;;;13.10;99.90;;;;;;5019185;28;20411;-79
2021/10/19 08:47:40;;;;;;;104.32;91.90;;;13.20;99.90;;;;;;5019640;28;20436;-79
2021/10/19 08:50:06;;;;;;;105.77;92.10;;;13.20;99.90;;;;;;5037205;28;20281;-79
2021/10/19 08:52:32;;;;;;;112.67;100.63;;;13.20;99.90;;;;;;5036948;28;20411;-79
2021/10/19 08:54:57;;;;;;;114.00;102.17;;;13.30;99.90;;;;;;5037748;28;20408;-79
2021/10/19 08:57:23;;;;;;;107.43;95.13;;;13.30;99.90;;;;;;5037405;28;20209;-79
2021/10/19 08:59:49;;;;;;;122.10;109.73;;;13.50;99.90;;;;;;5037755;28;20168;-79
2021/10/19 09:02:15;;;;;;;113.50;101.70;;;13.60;99.90;;;;;;5019366;28;20200;-79
2021/10/19 09:04:42;;;;;;;108.73;97.03;;;13.70;99.90;;;;;;5037382;28;20475;-79
2021/10/19 09:07:08;;;;;;;117.63;105.63;;;13.70;99.90;;;;;;5037240;28;20504;-79
2021/10/19 09:09:35;;;;;;;107.50;96.03;;;13.80;99.90;;;;;;5037540;28;20414;-79
2021/10/19 09:12:02;;;;;;;122.33;110.17;;;13.80;99.90;;;;;;5037393;28;20404;-79
2021/10/19 09:14:38;;;;;;;127.10;114.80;;;13.80;99.90;;;;;;5019495;28;20818;-79
2021/10/19 09:17:04;;;;;;;136.33;123.47;;;13.90;99.90;;;;;;5037954;28;20432;-79
2021/10/19 09:19:34;;;;;;;135.57;122.73;;;13.90;99.90;;;;;;5037303;28;20404;-79
2021/10/19 09:22:08;;;;;;;131.13;118.63;;;13.90;99.90;;;;;;5036552;28;20434;-79
2021/10/19 09:24:36;;;;;;;124.70;112.47;;;13.90;99.90;;;;;;5019402;28;20403;-79
2021/10/19 09:27:09;;;;;;;126.63;114.30;;;13.90;99.90;;;;;;5037053;28;20810;-79
2021/10/19 09:29:46;;;;;;;129.73;116.97;;;14.00;99.90;;;;;;5037495;28;20400;-79
2021/10/19 09:32:15;;;;;;;129.53;117.13;;;14.00;99.90;;;;;;5036845;28;20392;-79
2021/10/19 09:34:45;;;;;;;142.03;129.43;;;14.10;99.90;;;;;;5036548;28;20458;-79
2021/10/19 09:37:17;;;;;;;136.73;124.07;;;14.10;99.90;;;;;;5036775;28;20518;-79
2021/10/19 09:39:49;;;;;;;129.80;117.63;;;14.20;99.90;;;;;;5037751;28;20384;-79
2021/10/19 09:42:18;;;;;;;135.43;123.17;;;14.20;99.90;;;;;;5019611;28;20440;-79
2021/10/19 09:44:53;;;;;;;144.70;132.13;;;14.20;99.90;;;;;;5036879;28;20396;-79
2021/10/19 09:47:19;;;;;;;174.13;159.87;;;14.20;99.90;;;;;;5019244;28;20477;-79
2021/10/19 09:49:47;;;;;;;164.93;151.20;;;14.20;99.90;;;;;;5037307;28;20810;-79
2021/10/19 09:52:13;;;;;;;141.93;129.17;;;14.20;99.90;;;;;;5036945;28;20419;-79
2021/10/19 09:54:41;;;;;;;153.10;139.67;;;14.20;99.90;;;;;;5018989;28;20416;-79
2021/10/19 09:57:08;;;;;;;156.27;142.90;;;14.30;99.90;;;;;;5037586;28;20520;-79
2021/10/19 09:59:35;;;;;;;149.07;135.90;;;14.30;99.90;;;;;;5040590;28;20412;-80
2021/10/19 10:02:02;;;;;;;155.47;142.37;;;14.40;99.90;;;;;;5041040;28;20465;-80
2021/10/19 10:04:34;;;;;;;145.27;132.60;;;14.50;99.90;;;;;;5040402;28;20411;-79
2021/10/19 10:07:00;;;;;;;169.53;155.90;;;14.50;99.90;;;;;;5022951;28;20422;-80
2021/10/19 10:09:26;;;;;;;187.83;173.43;;;14.50;99.90;;;;;;5040518;28;20914;-80
2021/10/19 10:11:52;;;;;;;172.23;158.53;;;14.50;99.90;;;;;;5022387;28;20188;-80
2021/10/19 10:14:18;;;;;;;187.57;172.83;;;14.50;99.90;;;;;;5041101;28;20814;-80
2021/10/19 10:16:49;;;;;;;173.67;159.87;;;14.50;99.90;;;;;;5040426;28;20177;-80
2021/10/19 10:19:18;;;;;;;166.60;152.47;;;14.50;99.90;;;;;;5039161;28;20420;-78
2021/10/19 10:21:52;;;;;;;161.13;147.77;;;14.60;99.90;;;;;;5039637;28;20428;-78
2021/10/19 10:24:32;;;;;;;211.73;196.00;;;14.60;99.90;;;;;;5039446;28;20396;-79
2021/10/19 10:27:04;;;;;;;186.23;171.53;;;14.60;99.90;;;;;;5040178;28;20416;-79
2021/10/19 10:29:38;;;;;;;162.20;148.77;;;14.70;99.90;;;;;;5039297;28;20404;-79
2021/10/19 10:32:04;;;;;;;168.57;155.03;;;14.60;99.90;;;;;;5039059;28;20857;-79
2021/10/19 10:34:31;;;;;;;173.50;159.77;;;14.50;99.90;;;;;;5039451;28;20408;-79
2021/10/19 10:37:11;;;;;;;173.73;159.97;;;14.60;99.90;;;;;;5039252;28;20446;-78
2021/10/19 10:39:46;;;;;;;162.57;149.27;;;14.60;99.90;;;;;;5039116;28;20376;-78
2021/10/19 10:42:13;;;;;;;162.73;149.30;;;14.60;99.90;;;;;;5039141;28;20380;-78
2021/10/19 10:44:40;;;;;;;168.73;155.13;;;14.60;99.90;;;;;;5021043;28;20415;-78
2021/10/19 10:47:08;;;;;;;160.27;146.47;;;14.60;99.90;;;;;;5038709;28;20408;-78
2021/10/19 10:49:35;;;;;;;161.47;148.23;;;14.70;99.90;;;;;;5038713;28;20400;-79
2021/10/19 10:52:02;;;;;;;164.67;151.27;;;14.70;99.90;;;;;;5039064;28;20917;-78
2021/10/19 10:54:28;;;;;;;161.43;148.17;;;14.80;99.90;;;;;;5038377;28;20400;-79
2021/10/19 10:56:55;;;;;;;159.27;145.77;;;14.80;99.90;;;;;;5020871;28;20412;-79
2021/10/19 10:59:29;;;;;;;151.83;138.57;;;14.90;99.90;;;;;;5039105;28;20435;-79
2021/10/19 11:02:07;;;;;;;148.03;135.03;;;14.90;99.90;;;;;;5021355;28;20411;-79
2021/10/19 11:04:33;;;;;;;178.80;164.67;;;14.90;99.90;;;;;;5038855;28;20380;-79
2021/10/19 11:06:59;;;;;;;177.37;162.87;;;15.00;99.90;;;;;;5020822;28;20412;-79
2021/10/19 11:09:29;;;;;;;191.93;176.87;;;15.00;99.90;;;;;;5037669;28;20737;-79
2021/10/19 11:11:58;;;;;;;173.53;159.70;;;15.10;99.90;;;;;;5021656;28;20484;-79
2021/10/19 11:14:25;;;;;;;162.50;149.20;;;15.10;99.90;;;;;;5036952;28;20492;-79
2021/10/19 11:16:56;;;;;;;178.23;164.30;;;15.30;99.90;;;;;;5019695;28;20454;-78
2021/10/19 11:19:24;;;;;;;183.80;169.60;;;15.50;99.90;;;;;;5037124;28;20427;-78
2021/10/19 11:21:56;;;;;;;156.83;143.83;;;15.50;99.90;;;;;;5037190;28;20404;-80
2021/10/19 11:24:24;;;;;;;205.30;190.57;;;15.50;99.90;;;;;;5020772;28;20763;-79
2021/10/19 11:26:50;;;;;;;162.67;149.47;;;15.50;99.90;;;;;;5037118;28;20419;-78
2021/10/19 11:29:16;;;;;;;195.73;181.50;;;15.50;99.90;;;;;;5037006;28;20432;-78
2021/10/19 11:31:42;;;;;;;207.10;192.50;;;15.60;99.90;;;;;;5036794;28;20459;-79
2021/10/19 11:34:08;;;;;;;192.20;177.80;;;15.70;99.90;;;;;;5018918;28;20900;-79
2021/10/19 11:36:35;;;;;;;211.27;195.70;;;16.00;99.90;;;;;;5036369;28;20757;-78
2021/10/19 11:39:11;;;;;;;249.50;232.70;;;16.10;99.90;;;;;;5036130;28;21011;-78
2021/10/19 11:41:37;;;;;;;209.37;194.20;;;16.30;99.90;;;;;;5036578;28;20447;-79
2021/10/19 11:44:09;;;;;;;274.33;256.83;;;16.50;99.90;;;;;;5036607;28;20399;-78
2021/10/19 11:46:40;;;;;;;254.23;237.87;;;16.60;99.90;;;;;;5036504;28;20479;-78
2021/10/19 11:49:10;;;;;;;295.60;277.23;;;16.70;99.90;;;;;;5018220;28;20432;-78
2021/10/19 11:51:36;;;;;;;277.13;260.03;;;16.90;99.90;;;;;;5037021;28;20391;-79
2021/10/19 11:54:04;;;;;;;286.43;268.60;;;17.00;99.90;;;;;;5036816;28;20883;-78
2021/10/19 11:56:30;;;;;;;317.77;298.83;;;17.10;99.90;;;;;;5036788;28;20168;-79
2021/10/19 11:59:02;;;;;;;250.07;233.77;;;17.20;99.90;;;;;;5018553;28;20458;-79
2021/10/19 12:01:28;;;;;;;283.03;265.13;;;17.20;99.90;;;;;;5036639;28;20418;-78
2021/10/19 12:04:05;;;;;;;251.77;235.20;;;17.30;99.90;;;;;;5037248;28;20405;-79
2021/10/19 12:06:32;;;;;;;230.13;213.60;;;17.30;99.90;;;;;;5020137;28;20414;-78
2021/10/19 12:09:23;;;;;;;262.17;245.30;;;17.30;99.90;;;;;;5036377;28;20447;-79
2021/10/19 12:11:54;;;;;;;149.93;137.20;;;17.40;99.90;;;;;;5036819;28;20395;-79
2021/10/19 12:14:30;;;;;;;173.87;160.33;;;17.40;99.90;;;;;;5036194;28;20748;-78